Time;durP1;ratioP1;P1;durP2;ratioP2;P2;SDS_P1;SDS_P2;PMS_P1;PMS_P2;Temp;Humidity;BMP_temperature;BMP_pressure;BME280_temperature;BME280_humidity;BME280_pressure;Samples;Min_cycle;Max_cycle;Signal;HPM_P1;HPM_P2
2021/09/20 00:02:14;;;;;;;1.33;0.57;;;14.20;91.30;;;;;;5049842;28;20911;-65
2021/09/20 00:04:42;;;;;;;1.40;0.60;;;14.20;91.30;;;;;;5039393;28;20824;-64
2021/09/20 00:07:09;;;;;;;1.40;0.60;;;14.20;91.30;;;;;;5036107;28;20491;-65
2021/09/20 00:09:41;;;;;;;1.30;0.60;;;14.20;91.50;;;;;;5049946;28;20495;-65
2021/09/20 00:12:08;;;;;;;1.47;0.63;;;14.20;91.60;;;;;;5056029;28;20484;-65
2021/09/20 00:14:35;;;;;;;1.50;0.70;;;14.20;91.60;;;;;;5042210;28;20442;-65
2021/09/20 00:17:07;;;;;;;1.53;0.73;;;14.20;91.80;;;;;;5036001;28;20437;-65
2021/09/20 00:19:35;;;;;;;1.50;0.70;;;14.20;91.70;;;;;;5043953;28;20486;-65
2021/09/20 00:22:04;;;;;;;1.50;0.70;;;14.20;91.50;;;;;;5055630;28;20931;-65
2021/09/20 00:24:31;;;;;;;1.40;0.60;;;14.20;91.90;;;;;;5043634;28;20438;-65
2021/09/20 00:26:58;;;;;;;1.40;0.60;;;14.20;92.00;;;;;;5035499;28;20544;-65
2021/09/20 00:29:25;;;;;;;1.37;0.60;;;14.20;91.90;;;;;;5046820;28;20465;-66
2021/09/20 00:31:52;;;;;;;1.40;0.60;;;14.20;91.90;;;;;;5055462;28;20498;-65
2021/09/20 00:34:19;;;;;;;1.40;0.60;;;14.20;92.10;;;;;;5045784;28;20534;-66
2021/09/20 00:36:46;;;;;;;1.70;0.60;;;14.20;92.10;;;;;;5051886;28;20432;-67
2021/09/20 00:39:15;;;;;;;1.70;0.70;;;14.20;92.10;;;;;;5046450;28;20858;-65
2021/09/20 00:41:42;;;;;;;1.40;0.60;;;14.20;92.10;;;;;;5035551;28;20529;-65
2021/09/20 00:44:09;;;;;;;1.80;0.70;;;14.20;92.10;;;;;;5042498;28;20475;-65
2021/09/20 00:46:36;;;;;;;1.60;0.80;;;14.20;92.20;;;;;;5055172;28;20498;-65
2021/09/20 00:49:06;;;;;;;1.40;0.60;;;14.20;92.20;;;;;;5048003;28;20560;-65
2021/09/20 00:51:33;;;;;;;1.30;0.60;;;14.20;92.20;;;;;;5040794;28;20483;-65
2021/09/20 00:54:00;;;;;;;1.40;0.60;;;14.20;92.20;;;;;;5054943;28;20484;-65
2021/09/20 00:56:30;;;;;;;1.40;0.60;;;14.20;92.20;;;;;;5050480;28;20502;-65
2021/09/20 00:58:58;;;;;;;1.70;0.80;;;14.30;92.20;;;;;;5034996;28;20446;-65
2021/09/20 01:01:27;;;;;;;1.60;0.60;;;14.30;92.10;;;;;;5038371;28;20236;-65
2021/09/20 01:03:54;;;;;;;1.40;0.63;;;14.30;92.10;;;;;;5054957;28;20906;-65
2021/09/20 01:06:21;;;;;;;1.40;0.60;;;14.30;92.00;;;;;;5051172;28;20535;-66
2021/09/20 01:08:49;;;;;;;1.40;0.70;;;14.20;92.00;;;;;;5049113;28;20837;-65
2021/09/20 01:11:16;;;;;;;2.70;0.60;;;14.30;92.10;;;;;;5053329;28;20447;-66
2021/09/20 01:13:45;;;;;;;1.40;0.60;;;14.30;92.10;;;;;;5034673;28;20489;-66
2021/09/20 01:16:12;;;;;;;1.70;0.57;;;14.30;92.10;;;;;;5034288;28;20448;-65
2021/09/20 01:18:39;;;;;;;1.40;0.60;;;14.30;92.10;;;;;;5034904;28;20449;-65
2021/09/20 01:21:06;;;;;;;1.40;0.60;;;14.30;92.20;;;;;;5034787;28;20438;-65
2021/09/20 01:23:35;;;;;;;1.60;0.80;;;14.30;92.20;;;;;;5049780;28;20437;-65
2021/09/20 01:26:02;;;;;;;2.73;0.77;;;14.30;92.20;;;;;;5034657;28;20442;-65
2021/09/20 01:28:29;;;;;;;1.47;0.50;;;14.30;92.10;;;;;;5053549;28;20793;-65
2021/09/20 01:30:56;;;;;;;1.30;0.60;;;14.20;92.10;;;;;;5053778;28;20520;-65
2021/09/20 01:33:23;;;;;;;1.40;0.60;;;14.30;92.20;;;;;;5048902;28;20505;-65
2021/09/20 01:35:52;;;;;;;1.33;0.60;;;14.20;92.20;;;;;;5034205;28;20440;-65
2021/09/20 01:38:19;;;;;;;3.20;0.80;;;14.30;92.80;;;;;;5037578;28;20433;-65
2021/09/20 01:40:48;;;;;;;1.40;0.60;;;14.30;92.40;;;;;;5041945;28;20442;-66
2021/09/20 01:43:15;;;;;;;2.50;0.60;;;14.20;92.50;;;;;;5036579;28;20785;-65
2021/09/20 01:45:46;;;;;;;1.30;0.50;;;14.20;92.80;;;;;;5053934;28;20437;-65
2021/09/20 01:48:13;;;;;;;1.50;0.67;;;14.20;92.40;;;;;;5052184;28;20491;-66
2021/09/20 01:50:46;;;;;;;1.40;0.53;;;14.20;92.50;;;;;;5034366;28;20540;-65
2021/09/20 01:53:15;;;;;;;1.40;0.60;;;14.30;92.60;;;;;;5034739;28;20525;-65
2021/09/20 01:55:42;;;;;;;1.40;0.50;;;14.20;92.60;;;;;;5037621;28;20486;-66
2021/09/20 01:58:11;;;;;;;1.47;0.63;;;14.20;92.50;;;;;;5034044;28;20521;-65
2021/09/20 02:00:43;;;;;;;1.50;0.60;;;14.20;92.70;;;;;;5033919;28;20529;-65
2021/09/20 02:03:11;;;;;;;1.30;0.50;;;14.20;92.80;;;;;;5033987;28;20504;-66
2021/09/20 02:05:38;;;;;;;1.40;0.70;;;14.20;93.00;;;;;;5034156;28;20771;-65
2021/09/20 02:08:06;;;;;;;1.40;0.60;;;14.20;93.00;;;;;;5033519;28;20512;-65
2021/09/20 02:10:35;;;;;;;1.40;0.60;;;14.20;92.90;;;;;;5036842;28;20518;-66
2021/09/20 02:13:02;;;;;;;1.40;0.50;;;14.30;93.30;;;;;;5042285;28;20896;-65
2021/09/20 02:15:31;;;;;;;1.33;0.60;;;14.30;92.80;;;;;;5052279;28;20519;-65
2021/09/20 02:18:00;;;;;;;1.73;0.70;;;14.30;92.80;;;;;;5053060;28;20477;-65
2021/09/20 02:20:27;;;;;;;1.40;0.60;;;14.30;93.00;;;;;;5052991;28;20469;-65
2021/09/20 02:22:57;;;;;;;1.40;0.70;;;14.20;92.80;;;;;;5044026;28;20521;-65
2021/09/20 02:25:26;;;;;;;1.30;0.50;;;14.20;92.90;;;;;;5033282;28;20437;-65
2021/09/20 02:27:53;;;;;;;1.50;0.73;;;14.20;92.90;;;;;;5039747;28;20473;-65
2021/09/20 02:30:21;;;;;;;1.50;0.70;;;14.20;92.80;;;;;;5034651;28;20532;-65
2021/09/20 02:32:49;;;;;;;1.40;0.60;;;14.20;92.90;;;;;;5039763;28;20468;-65
2021/09/20 02:35:16;;;;;;;1.40;0.60;;;14.20;93.00;;;;;;5053068;28;20440;-65
2021/09/20 02:37:43;;;;;;;2.53;0.60;;;14.20;92.80;;;;;;5046912;28;20438;-65
2021/09/20 02:40:12;;;;;;;1.50;0.53;;;14.20;92.70;;;;;;5032768;28;20442;-65
2021/09/20 02:42:40;;;;;;;1.40;0.60;;;14.20;92.80;;;;;;5037612;28;20429;-65
2021/09/20 02:45:09;;;;;;;1.30;0.50;;;14.20;92.90;;;;;;5044090;28;20438;-64
2021/09/20 02:47:37;;;;;;;1.37;0.50;;;14.20;93.00;;;;;;5032986;28;20426;-65
2021/09/20 02:50:07;;;;;;;1.40;0.50;;;14.20;93.00;;;;;;5035760;28;20834;-64
2021/09/20 02:52:34;;;;;;;1.40;0.60;;;14.20;93.10;;;;;;5052827;28;20795;-65
2021/09/20 02:55:02;;;;;;;1.40;0.60;;;14.20;93.10;;;;;;5041150;28;20442;-65
2021/09/20 02:57:34;;;;;;;2.73;0.77;;;14.20;93.10;;;;;;5032913;28;20537;-64
2021/09/20 03:00:05;;;;;;;1.70;0.70;;;14.20;93.30;;;;;;5040814;28;20521;-65
2021/09/20 03:02:32;;;;;;;3.93;1.23;;;14.20;93.20;;;;;;5035271;28;20191;-66
2021/09/20 03:05:00;;;;;;;1.40;0.60;;;14.20;93.20;;;;;;5041806;28;20448;-65
2021/09/20 03:07:28;;;;;;;1.60;0.70;;;14.20;93.40;;;;;;5052510;28;20436;-65
2021/09/20 03:09:55;;;;;;;1.60;0.60;;;14.20;92.90;;;;;;5050785;28;20437;-64
2021/09/20 03:12:22;;;;;;;1.40;0.60;;;14.20;92.80;;;;;;5052290;28;20529;-64
2021/09/20 03:14:50;;;;;;;1.40;0.67;;;14.20;92.90;;;;;;5045050;28;20470;-65
2021/09/20 03:17:17;;;;;;;1.40;0.60;;;14.20;93.00;;;;;;5039008;28;20740;-65
2021/09/20 03:19:45;;;;;;;1.67;0.60;;;14.20;93.10;;;;;;5052216;28;20986;-64
2021/09/20 03:22:12;;;;;;;2.00;0.70;;;14.20;93.20;;;;;;5046840;28;20990;-65
2021/09/20 03:24:40;;;;;;;1.83;0.60;;;14.20;93.20;;;;;;5032332;28;20520;-65
2021/09/20 03:27:08;;;;;;;1.43;0.60;;;14.20;93.20;;;;;;5040025;28;20971;-65
2021/09/20 03:29:35;;;;;;;1.40;0.70;;;14.30;93.10;;;;;;5051677;28;20508;-65
2021/09/20 03:32:04;;;;;;;1.50;0.60;;;14.20;93.00;;;;;;5044043;28;20511;-64
2021/09/20 03:34:31;;;;;;;1.30;0.50;;;14.20;93.10;;;;;;5046013;28;20854;-66
2021/09/20 03:36:59;;;;;;;1.40;0.57;;;14.20;93.30;;;;;;5045386;28;20521;-65
2021/09/20 03:39:26;;;;;;;1.70;0.60;;;14.30;93.60;;;;;;5031915;28;20524;-64
2021/09/20 03:41:54;;;;;;;1.30;0.60;;;14.30;93.60;;;;;;5037099;28;20465;-66
2021/09/20 03:44:21;;;;;;;1.47;0.60;;;14.30;93.70;;;;;;5052002;28;20518;-65
2021/09/20 03:46:51;;;;;;;1.50;0.80;;;14.30;93.70;;;;;;5047362;28;20508;-65
2021/09/20 03:49:19;;;;;;;3.50;1.20;;;14.30;93.80;;;;;;5035303;28;20797;-65
2021/09/20 03:51:46;;;;;;;1.70;0.70;;;14.30;93.90;;;;;;5051795;28;20528;-65
2021/09/20 03:54:15;;;;;;;2.33;0.70;;;14.30;94.10;;;;;;5049338;28;20480;-65
2021/09/20 03:56:42;;;;;;;1.47;0.70;;;14.30;94.00;;;;;;5032409;28;20438;-65
2021/09/20 03:59:11;;;;;;;1.60;0.80;;;14.30;94.40;;;;;;5037107;28;20441;-65
2021/09/20 04:01:38;;;;;;;1.37;0.60;;;14.30;94.10;;;;;;5052379;28;20475;-64
2021/09/20 04:04:08;;;;;;;1.50;0.60;;;14.30;94.10;;;;;;5046795;28;20537;-65
2021/09/20 04:06:35;;;;;;;1.80;1.07;;;14.30;94.30;;;;;;5044456;28;20455;-65
2021/09/20 04:09:02;;;;;;;5.30;0.90;;;14.30;94.50;;;;;;5047460;28;20473;-64
2021/09/20 04:11:29;;;;;;;1.47;0.67;;;14.30;94.30;;;;;;5031947;28;20468;-64
2021/09/20 04:13:57;;;;;;;1.40;0.80;;;14.30;94.10;;;;;;5034368;28;20484;-64
2021/09/20 04:16:26;;;;;;;1.40;0.60;;;14.30;94.10;;;;;;5051794;28;20447;-65
2021/09/20 04:18:53;;;;;;;1.50;0.77;;;14.30;94.20;;;;;;5049455;28;20476;-65
2021/09/20 04:21:24;;;;;;;1.50;0.77;;;14.30;94.20;;;;;;5032707;28;20441;-64
2021/09/20 04:23:51;;;;;;;2.77;0.60;;;14.30;94.10;;;;;;5032003;28;20461;-65
2021/09/20 04:26:19;;;;;;;1.50;0.73;;;14.20;94.10;;;;;;5031993;28;20537;-65
2021/09/20 04:28:46;;;;;;;1.50;0.80;;;14.30;94.30;;;;;;5031769;28;20473;-65
2021/09/20 04:31:13;;;;;;;1.50;0.70;;;14.30;94.20;;;;;;5034374;28;20449;-64
2021/09/20 04:33:41;;;;;;;1.83;0.80;;;14.30;94.00;;;;;;5051104;28;20567;-66
2021/09/20 04:36:09;;;;;;;1.47;0.60;;;14.20;93.90;;;;;;5049284;28;22190;-64
2021/09/20 04:38:36;;;;;;;1.60;0.60;;;14.30;93.90;;;;;;5041067;28;20448;-64
2021/09/20 04:41:03;;;;;;;1.50;0.70;;;14.20;93.80;;;;;;5050206;28;20912;-65
2021/09/20 04:43:30;;;;;;;1.47;0.70;;;14.30;94.00;;;;;;5035078;28;20438;-64
2021/09/20 04:45:57;;;;;;;1.50;0.80;;;14.30;94.00;;;;;;5035213;28;20442;-65
2021/09/20 04:48:27;;;;;;;1.67;0.90;;;14.20;94.10;;;;;;5052191;28;20469;-65
2021/09/20 04:50:57;;;;;;;1.37;0.70;;;14.20;94.20;;;;;;5052607;28;20520;-65
2021/09/20 04:53:29;;;;;;;1.90;1.00;;;14.20;94.30;;;;;;5036858;28;20836;-65
2021/09/20 04:55:56;;;;;;;2.80;0.80;;;14.30;94.30;;;;;;5050483;28;20532;-64
2021/09/20 04:58:24;;;;;;;1.43;0.63;;;14.30;94.40;;;;;;5052631;28;20437;-65
2021/09/20 05:00:51;;;;;;;3.30;0.80;;;14.30;94.40;;;;;;5036331;28;20434;-66
2021/09/20 05:03:18;;;;;;;2.33;0.77;;;14.30;94.10;;;;;;5034567;28;20920;-65
2021/09/20 05:05:45;;;;;;;1.70;0.80;;;14.30;94.00;;;;;;5047302;28;20519;-65
2021/09/20 05:08:17;;;;;;;1.50;0.70;;;14.30;94.10;;;;;;5052137;28;20536;-65
2021/09/20 05:10:46;;;;;;;1.73;0.90;;;14.30;94.10;;;;;;5051028;28;20523;-66
2021/09/20 05:13:13;;;;;;;3.90;0.80;;;14.30;94.20;;;;;;5034310;28;20496;-64
2021/09/20 05:15:45;;;;;;;1.80;1.00;;;14.30;94.00;;;;;;5035762;28;21521;-65
2021/09/20 05:18:13;;;;;;;2.17;0.83;;;14.20;94.00;;;;;;5034585;28;20442;-65
2021/09/20 05:20:40;;;;;;;3.60;0.90;;;14.20;94.10;;;;;;5030107;28;20553;-65
2021/09/20 05:23:07;;;;;;;1.60;0.80;;;14.30;94.10;;;;;;5032054;28;20785;-64
2021/09/20 05:25:36;;;;;;;2.47;0.83;;;14.30;94.10;;;;;;5030019;28;20995;-65
2021/09/20 05:28:07;;;;;;;1.57;0.73;;;14.20;94.10;;;;;;5014812;28;20443;-66
2021/09/20 05:30:35;;;;;;;1.70;0.80;;;14.20;94.10;;;;;;5023868;28;20430;-65
2021/09/20 05:33:02;;;;;;;1.60;0.70;;;14.20;94.00;;;;;;5031921;28;20477;-65
2021/09/20 05:35:29;;;;;;;1.50;0.60;;;14.20;94.00;;;;;;5023287;28;21043;-64
2021/09/20 05:37:57;;;;;;;1.60;1.07;;;14.20;94.00;;;;;;5014125;28;20501;-65
2021/09/20 05:40:26;;;;;;;1.40;0.70;;;14.30;93.90;;;;;;5021102;28;20446;-64
2021/09/20 05:43:00;;;;;;;1.60;0.90;;;14.30;94.00;;;;;;5021096;28;20537;-65
2021/09/20 05:45:28;;;;;;;1.70;0.90;;;14.30;94.10;;;;;;5026043;28;20445;-67
2021/09/20 05:47:55;;;;;;;1.63;0.70;;;14.30;94.10;;;;;;5016244;28;20534;-64
2021/09/20 05:50:23;;;;;;;2.40;0.83;;;14.30;93.70;;;;;;5018013;28;20450;-65
2021/09/20 05:52:50;;;;;;;1.50;0.70;;;14.30;93.70;;;;;;5016413;28;20442;-65
2021/09/20 05:55:17;;;;;;;1.30;0.60;;;14.30;93.70;;;;;;5016225;28;20564;-65
2021/09/20 05:57:45;;;;;;;1.70;0.90;;;14.30;93.80;;;;;;5017433;28;20938;-65
2021/09/20 06:00:14;;;;;;;1.40;0.60;;;14.40;93.80;;;;;;5016318;28;20939;-65
2021/09/20 06:02:42;;;;;;;1.70;0.90;;;14.40;93.70;;;;;;5030917;28;20525;-65
2021/09/20 06:05:14;;;;;;;1.87;0.77;;;14.40;93.60;;;;;;5027009;28;20521;-64
2021/09/20 06:07:42;;;;;;;2.93;0.97;;;14.50;93.60;;;;;;5031758;28;20840;-65
2021/09/20 06:10:13;;;;;;;1.67;0.77;;;14.40;93.60;;;;;;5029001;28;20987;-66
2021/09/20 06:12:40;;;;;;;2.37;0.80;;;14.50;93.60;;;;;;5031761;28;20465;-65
2021/09/20 06:15:09;;;;;;;1.60;0.67;;;14.50;93.70;;;;;;5022134;28;20565;-65
2021/09/20 06:17:37;;;;;;;1.57;0.80;;;14.50;93.80;;;;;;5015442;28;20531;-65
2021/09/20 06:20:07;;;;;;;1.57;0.80;;;14.50;93.80;;;;;;5038266;28;20560;-65
2021/09/20 06:22:34;;;;;;;3.27;1.67;;;14.50;93.60;;;;;;5037696;28;20910;-65
2021/09/20 06:25:02;;;;;;;1.70;0.90;;;14.40;93.70;;;;;;5037861;28;20520;-65
2021/09/20 06:27:32;;;;;;;3.20;0.87;;;14.50;93.80;;;;;;5048760;28;20429;-69
2021/09/20 06:29:59;;;;;;;1.83;0.93;;;14.50;94.00;;;;;;5047992;28;20485;-65
2021/09/20 06:32:28;;;;;;;2.00;1.07;;;14.50;94.10;;;;;;5032164;28;20992;-65
2021/09/20 06:34:57;;;;;;;2.50;1.60;;;14.50;94.30;;;;;;5044203;28;20524;-64
2021/09/20 06:37:24;;;;;;;4.67;1.60;;;14.50;94.40;;;;;;5033481;28;20520;-65
2021/09/20 06:39:51;;;;;;;4.23;1.50;;;14.50;94.50;;;;;;5051428;28;20441;-65
2021/09/20 06:42:18;;;;;;;1.80;1.20;;;14.60;94.70;;;;;;5051025;28;20439;-65
2021/09/20 06:44:50;;;;;;;4.30;2.70;;;14.60;94.50;;;;;;5053478;28;20463;-65
2021/09/20 06:47:23;;;;;;;2.67;1.30;;;14.60;94.60;;;;;;5053191;28;20433;-65
2021/09/20 06:49:53;;;;;;;2.03;1.20;;;14.60;94.70;;;;;;5053425;28;20473;-65
2021/09/20 06:52:21;;;;;;;3.10;1.80;;;14.70;94.70;;;;;;5053367;28;20468;-65
2021/09/20 06:54:48;;;;;;;2.87;1.67;;;14.70;94.40;;;;;;5053184;28;20567;-65
2021/09/20 06:57:15;;;;;;;2.30;1.53;;;14.70;94.60;;;;;;5053119;28;20535;-65
2021/09/20 06:59:44;;;;;;;4.03;1.53;;;14.70;94.20;;;;;;5053263;28;20484;-67
2021/09/20 07:02:11;;;;;;;4.20;1.40;;;14.70;94.20;;;;;;5052563;28;20513;-65
2021/09/20 07:04:38;;;;;;;2.10;1.37;;;14.80;94.30;;;;;;5052828;28;20437;-65
2021/09/20 07:07:05;;;;;;;2.20;1.70;;;14.80;93.80;;;;;;5052848;28;20473;-65
2021/09/20 07:09:33;;;;;;;3.00;1.67;;;14.80;93.90;;;;;;5053023;28;20481;-65
2021/09/20 07:12:01;;;;;;;2.33;1.27;;;14.90;94.10;;;;;;5053125;28;20523;-65
2021/09/20 07:14:28;;;;;;;1.70;1.10;;;14.90;94.30;;;;;;5053002;28;20477;-65
2021/09/20 07:16:55;;;;;;;1.80;0.97;;;15.00;94.40;;;;;;5053117;28;20521;-65
2021/09/20 07:19:23;;;;;;;2.53;1.03;;;15.00;94.30;;;;;;5052675;28;20477;-65
2021/09/20 07:21:49;;;;;;;2.20;1.30;;;15.10;94.10;;;;;;5052900;28;20488;-65
2021/09/20 07:24:16;;;;;;;1.80;1.13;;;15.10;93.80;;;;;;5053054;28;20536;-66
2021/09/20 07:26:45;;;;;;;1.60;1.00;;;15.20;93.10;;;;;;5053027;28;20445;-65
2021/09/20 07:29:12;;;;;;;1.90;1.10;;;15.20;92.80;;;;;;5052855;28;20439;-65
2021/09/20 07:31:39;;;;;;;3.10;1.67;;;15.30;92.50;;;;;;5052996;28;20472;-65
2021/09/20 07:34:06;;;;;;;2.20;1.50;;;15.30;92.50;;;;;;5052241;28;20488;-64
2021/09/20 07:36:33;;;;;;;5.10;1.13;;;15.40;92.60;;;;;;5052573;28;20862;-65
2021/09/20 07:39:00;;;;;;;1.73;0.90;;;15.30;92.20;;;;;;5052641;28;20451;-65
2021/09/20 07:41:27;;;;;;;1.70;0.67;;;15.30;92.20;;;;;;5052465;28;20440;-65
2021/09/20 07:43:55;;;;;;;1.63;0.97;;;15.30;92.10;;;;;;5052464;28;20524;-65
2021/09/20 07:46:23;;;;;;;2.47;0.70;;;15.30;92.30;;;;;;5052774;28;20437;-65
2021/09/20 07:48:50;;;;;;;1.60;0.77;;;15.30;92.10;;;;;;5052568;28;20536;-65
2021/09/20 07:51:18;;;;;;;2.47;0.90;;;15.20;91.80;;;;;;5052623;28;20858;-65
2021/09/20 07:53:45;;;;;;;1.50;0.80;;;15.00;92.00;;;;;;5052747;28;20862;-64
2021/09/20 07:56:12;;;;;;;2.20;1.27;;;15.00;92.30;;;;;;5052261;28;20990;-65
2021/09/20 07:58:40;;;;;;;2.50;1.10;;;15.10;92.60;;;;;;5052688;28;20476;-64
2021/09/20 08:01:08;;;;;;;2.13;1.30;;;15.20;92.70;;;;;;5052454;28;20444;-64
2021/09/20 08:03:35;;;;;;;1.50;0.63;;;15.20;92.60;;;;;;5052512;28;20468;-65
2021/09/20 08:06:02;;;;;;;1.50;0.80;;;15.30;92.90;;;;;;5051783;28;20927;-65
2021/09/20 08:08:29;;;;;;;1.90;1.03;;;15.30;92.60;;;;;;5052425;28;20433;-64
2021/09/20 08:10:56;;;;;;;2.53;1.10;;;15.30;92.80;;;;;;5052450;28;20448;-65
2021/09/20 08:13:28;;;;;;;1.73;0.80;;;15.40;93.10;;;;;;5052046;28;20531;-65
2021/09/20 08:15:55;;;;;;;2.30;1.40;;;15.40;93.30;;;;;;5056527;28;20575;-65
2021/09/20 08:18:23;;;;;;;2.13;1.23;;;15.50;93.50;;;;;;5056546;28;20429;-65
2021/09/20 08:20:50;;;;;;;2.27;1.10;;;15.60;93.50;;;;;;5056116;28;20559;-65
2021/09/20 08:23:18;;;;;;;2.33;1.20;;;15.60;93.40;;;;;;5056543;28;20524;-65
2021/09/20 08:25:45;;;;;;;2.73;1.13;;;15.70;93.50;;;;;;5056325;28;20519;-66
2021/09/20 08:28:17;;;;;;;2.10;1.10;;;15.80;93.50;;;;;;5056260;28;20531;-66
2021/09/20 08:30:44;;;;;;;1.73;0.77;;;15.90;93.30;;;;;;5056164;28;20421;-64
2021/09/20 08:33:13;;;;;;;2.93;1.37;;;15.90;92.90;;;;;;5056371;28;20439;-65
2021/09/20 08:35:41;;;;;;;2.03;1.20;;;16.00;93.00;;;;;;5055864;28;20489;-67
2021/09/20 08:38:08;;;;;;;2.33;1.07;;;16.10;93.30;;;;;;5055830;28;20476;-65
2021/09/20 08:40:35;;;;;;;1.90;0.80;;;16.10;93.30;;;;;;5055714;28;20503;-66
2021/09/20 08:43:03;;;;;;;2.20;1.27;;;16.10;92.90;;;;;;5055833;28;20475;-65
2021/09/20 08:45:30;;;;;;;3.60;2.20;;;16.20;92.80;;;;;;5056134;28;20523;-65
2021/09/20 08:47:59;;;;;;;3.50;2.00;;;16.40;92.90;;;;;;5055770;28;20531;-65
2021/09/20 08:50:28;;;;;;;5.60;2.37;;;16.50;92.60;;;;;;5055880;28;20554;-65
2021/09/20 08:52:57;;;;;;;3.93;3.10;;;16.60;91.70;;;;;;5055930;28;20440;-65
2021/09/20 08:55:24;;;;;;;3.17;2.33;;;16.50;90.70;;;;;;5055689;28;20480;-65
2021/09/20 08:57:51;;;;;;;3.13;2.20;;;16.40;90.40;;;;;;5055714;28;20520;-65
2021/09/20 09:00:19;;;;;;;5.80;1.90;;;16.30;90.50;;;;;;5055695;28;20837;-65
2021/09/20 09:02:46;;;;;;;3.07;1.90;;;16.20;90.30;;;;;;5055691;28;20477;-65
2021/09/20 09:05:16;;;;;;;2.97;2.13;;;16.10;90.20;;;;;;5055744;28;20468;-65
2021/09/20 09:07:44;;;;;;;3.37;2.13;;;15.90;90.60;;;;;;5055566;28;20433;-64
2021/09/20 09:10:14;;;;;;;3.70;2.20;;;15.90;91.00;;;;;;5055194;28;20523;-65
2021/09/20 09:12:41;;;;;;;3.23;2.07;;;15.80;91.20;;;;;;5055388;28;20437;-65
2021/09/20 09:15:11;;;;;;;3.80;2.30;;;15.80;91.40;;;;;;5055450;28;20568;-66
2021/09/20 09:17:40;;;;;;;3.37;2.30;;;15.80;91.50;;;;;;5055400;28;20508;-64
2021/09/20 09:20:10;;;;;;;2.93;2.03;;;15.80;91.60;;;;;;5055090;28;20564;-65
2021/09/20 09:22:46;;;;;;;3.30;2.00;;;15.70;91.40;;;;;;5055493;28;20433;-64
2021/09/20 09:25:19;;;;;;;2.63;1.80;;;15.70;91.60;;;;;;5054524;28;20773;-64
2021/09/20 09:27:48;;;;;;;3.40;2.20;;;15.60;91.40;;;;;;5055059;28;20440;-64
2021/09/20 09:30:19;;;;;;;3.80;2.33;;;15.60;91.30;;;;;;5055467;28;20480;-64
2021/09/20 09:32:48;;;;;;;3.80;2.20;;;15.60;91.60;;;;;;5055067;28;20950;-64
2021/09/20 09:35:17;;;;;;;4.77;3.53;;;15.60;91.80;;;;;;5054977;28;20566;-65
2021/09/20 09:37:47;;;;;;;3.57;3.00;;;15.60;91.90;;;;;;5055195;28;20464;-65
2021/09/20 09:40:25;;;;;;;4.10;3.10;;;15.60;92.00;;;;;;5054975;28;20437;-65
2021/09/20 09:42:59;;;;;;;7.37;3.00;;;15.70;91.80;;;;;;5054593;28;20447;-65
2021/09/20 09:45:30;;;;;;;4.77;3.13;;;15.80;91.70;;;;;;5054989;28;21056;-64
2021/09/20 09:48:13;;;;;;;4.17;3.27;;;15.80;91.40;;;;;;5054684;28;20437;-64
2021/09/20 09:50:43;;;;;;;4.40;3.20;;;15.80;91.60;;;;;;5054682;28;20981;-65
2021/09/20 09:53:22;;;;;;;4.30;3.50;;;15.90;91.10;;;;;;5054679;28;20432;-66
2021/09/20 09:55:51;;;;;;;5.00;4.10;;;15.90;90.70;;;;;;5054682;28;20542;-64
2021/09/20 09:58:19;;;;;;;3.43;2.63;;;15.90;91.00;;;;;;5054308;28;20848;-64
2021/09/20 10:00:47;;;;;;;3.70;3.00;;;16.00;90.90;;;;;;5054342;28;20444;-65
2021/09/20 10:03:14;;;;;;;4.03;3.27;;;16.00;90.60;;;;;;5053994;28;20867;-65
2021/09/20 10:05:55;;;;;;;5.27;3.67;;;16.10;90.30;;;;;;5054257;28;20922;-65
2021/09/20 10:08:23;;;;;;;5.97;3.90;;;16.10;87.50;;;;;;5054305;28;20525;-65
2021/09/20 10:10:51;;;;;;;4.60;3.47;;;16.10;88.30;;;;;;5053836;28;20523;-65
2021/09/20 10:13:25;;;;;;;5.63;3.57;;;16.10;86.70;;;;;;5054201;28;20532;-65
2021/09/20 10:15:53;;;;;;;4.07;3.30;;;16.20;87.60;;;;;;5053734;28;20472;-64
2021/09/20 10:18:20;;;;;;;4.10;3.00;;;16.20;88.50;;;;;;5054348;28;20499;-64
2021/09/20 10:20:47;;;;;;;7.33;3.93;;;16.30;87.30;;;;;;5053923;28;20551;-65
2021/09/20 10:23:14;;;;;;;3.57;2.80;;;16.50;88.50;;;;;;5054166;28;20523;-65
2021/09/20 10:25:42;;;;;;;4.60;3.33;;;16.60;89.40;;;;;;5053663;28;20433;-65
2021/09/20 10:28:12;;;;;;;4.27;2.83;;;16.80;90.00;;;;;;5053680;28;20544;-66
2021/09/20 10:30:42;;;;;;;4.70;3.20;;;17.10;86.80;;;;;;5053894;28;20440;-64
2021/09/20 10:33:10;;;;;;;4.90;2.70;;;17.30;86.40;;;;;;5053762;28;20433;-64
2021/09/20 10:35:40;;;;;;;4.37;3.00;;;17.60;86.60;;;;;;5053669;28;20481;-65
2021/09/20 10:38:25;;;;;;;4.00;3.00;;;18.10;87.10;;;;;;5053421;28;20523;-65
2021/09/20 10:41:13;;;;;;;3.40;2.30;;;18.40;81.30;;;;;;5053809;28;20866;-65
2021/09/20 10:43:43;;;;;;;4.03;3.23;;;18.70;81.30;;;;;;5053312;28;20808;-66
2021/09/20 10:46:21;;;;;;;3.33;2.40;;;19.10;82.60;;;;;;5053776;28;20524;-65
2021/09/20 10:48:53;;;;;;;3.90;2.73;;;19.70;81.10;;;;;;5053455;28;20437;-65
2021/09/20 10:51:27;;;;;;;4.50;3.13;;;20.20;79.60;;;;;;5053423;28;20433;-65
2021/09/20 10:54:15;;;;;;;3.87;2.97;;;21.20;77.30;;;;;;5053252;28;20619;-65
2021/09/20 10:56:43;;;;;;;3.77;2.53;;;23.30;69.40;;;;;;5053202;28;20970;-65
2021/09/20 10:59:24;;;;;;;4.63;3.03;;;24.90;66.70;;;;;;5053356;28;20528;-66
2021/09/20 11:02:06;;;;;;;4.63;2.57;;;26.30;62.00;;;;;;5052803;28;20472;-65
2021/09/20 11:04:37;;;;;;;5.70;3.60;;;27.50;51.90;;;;;;5053403;28;20441;-65
2021/09/20 11:07:22;;;;;;;3.53;2.90;;;27.80;47.10;;;;;;5053355;28;20532;-65
2021/09/20 11:10:02;;;;;;;3.60;2.93;;;27.30;45.60;;;;;;5053008;28;20465;-66
2021/09/20 11:12:31;;;;;;;3.80;3.30;;;26.60;45.20;;;;;;5053124;28;20441;-65
2021/09/20 11:15:07;;;;;;;4.53;3.80;;;26.00;47.40;;;;;;5053299;28;20444;-65
2021/09/20 11:17:47;;;;;;;3.27;2.93;;;25.60;47.20;;;;;;5053083;28;20484;-65
2021/09/20 11:20:26;;;;;;;4.20;3.23;;;25.40;46.80;;;;;;5047833;28;20559;-65
2021/09/20 11:23:22;;;;;;;5.07;3.40;;;25.30;47.60;;;;;;5052105;28;20468;-65
2021/09/20 11:26:07;;;;;;;4.10;3.37;;;24.90;46.80;;;;;;5038883;28;20439;-65
2021/09/20 11:28:36;;;;;;;3.77;2.97;;;25.30;47.10;;;;;;5037738;28;20460;-65
2021/09/20 11:31:04;;;;;;;4.40;3.43;;;25.60;46.90;;;;;;5037063;28;20522;-65
2021/09/20 11:33:39;;;;;;;3.60;3.13;;;26.30;46.50;;;;;;5044791;28;21001;-65
2021/09/20 11:36:24;;;;;;;4.57;3.50;;;26.40;45.10;;;;;;5042473;28;20481;-65
2021/09/20 11:39:07;;;;;;;4.27;3.57;;;26.60;44.80;;;;;;5032567;28;20474;-66
2021/09/20 11:41:34;;;;;;;5.53;3.20;;;27.60;46.00;;;;;;5032706;28;20448;-65
2021/09/20 11:44:02;;;;;;;3.97;3.33;;;31.20;44.60;;;;;;5049306;28;20532;-65
2021/09/20 11:46:31;;;;;;;4.50;4.10;;;33.70;35.40;;;;;;5052271;28;20877;-66
2021/09/20 11:49:04;;;;;;;4.70;3.33;;;33.50;33.60;;;;;;5050786;28;20479;-66
2021/09/20 11:51:31;;;;;;;3.53;2.77;;;33.40;31.20;;;;;;5052032;28;20970;-66
2021/09/20 11:53:58;;;;;;;3.80;2.50;;;32.90;30.10;;;;;;5051989;28;20926;-66
2021/09/20 11:56:27;;;;;;;3.40;2.80;;;32.30;31.10;;;;;;5038018;28;20999;-65
2021/09/20 11:58:54;;;;;;;4.57;3.07;;;32.90;32.80;;;;;;5032295;28;20520;-67
2021/09/20 12:01:23;;;;;;;3.80;3.20;;;33.30;31.70;;;;;;5032471;28;20442;-66
2021/09/20 12:03:54;;;;;;;3.83;3.30;;;32.80;29.60;;;;;;5032391;28;20434;-66
2021/09/20 12:06:27;;;;;;;4.00;2.93;;;32.00;30.20;;;;;;5032628;28;20531;-66
2021/09/20 12:08:56;;;;;;;3.20;2.90;;;31.20;30.50;;;;;;5032252;28;20451;-66
2021/09/20 12:11:27;;;;;;;3.60;3.10;;;30.40;31.10;;;;;;5032323;28;20536;-66
2021/09/20 12:13:55;;;;;;;3.10;2.50;;;29.60;32.80;;;;;;5032498;28;20447;-65
2021/09/20 12:16:27;;;;;;;4.47;3.80;;;28.60;34.30;;;;;;5032189;28;20576;-66
2021/09/20 12:18:57;;;;;;;3.93;3.20;;;27.70;35.80;;;;;;5029832;28;20541;-65
2021/09/20 12:21:29;;;;;;;4.20;2.97;;;26.90;37.10;;;;;;5012784;28;20446;-65
2021/09/20 12:23:56;;;;;;;4.20;3.03;;;26.10;38.40;;;;;;5012420;28;20446;-65
2021/09/20 12:26:28;;;;;;;4.40;3.37;;;25.30;39.20;;;;;;5012279;28;20487;-65
2021/09/20 12:28:56;;;;;;;4.90;3.03;;;24.60;41.40;;;;;;5012523;28;20493;-65
2021/09/20 12:31:39;;;;;;;3.97;2.90;;;24.00;42.30;;;;;;5012424;28;20530;-65
2021/09/20 12:34:12;;;;;;;4.40;3.07;;;23.50;43.00;;;;;;5012229;28;20470;-65
2021/09/20 12:36:41;;;;;;;3.60;2.73;;;23.40;45.70;;;;;;5012584;28;20493;-65
2021/09/20 12:39:12;;;;;;;4.43;2.87;;;24.90;50.60;;;;;;5012547;28;20589;-65
2021/09/20 12:41:42;;;;;;;3.37;3.00;;;26.40;42.20;;;;;;5012726;28;20525;-66
2021/09/20 12:44:11;;;;;;;3.73;3.00;;;27.00;41.00;;;;;;5012106;28;20486;-65
2021/09/20 12:46:42;;;;;;;3.67;3.30;;;27.00;38.00;;;;;;5012360;28;20532;-66
2021/09/20 12:49:16;;;;;;;4.13;2.50;;;27.10;37.60;;;;;;5012390;28;20434;-65
2021/09/20 12:51:52;;;;;;;3.50;2.77;;;27.10;38.00;;;;;;5012168;28;20445;-65
2021/09/20 12:54:24;;;;;;;6.80;3.20;;;28.40;37.40;;;;;;5011801;28;20481;-66
2021/09/20 12:56:58;;;;;;;2.97;2.47;;;28.00;35.50;;;;;;5012238;28;20583;-66
2021/09/20 12:59:32;;;;;;;4.20;2.57;;;27.50;37.60;;;;;;5012294;28;20533;-65